Time;durP1;ratioP1;P1;durP2;ratioP2;P2;SDS_P1;SDS_P2;PMS_P1;PMS_P2;Temp;Humidity;BMP_temperature;BMP_pressure;BME280_temperature;BME280_humidity;BME280_pressure;Samples;Min_cycle;Max_cycle;Signal;HPM_P1;HPM_P2
2022/11/20 00:01:24;;;;;;;8.55;6.15;;;;;;;;;;5090313;28;20023;-76
2022/11/20 00:03:51;;;;;;;7.18;5.15;;;;;;;;;;5086983;28;20027;-77
2022/11/20 00:06:18;;;;;;;8.40;6.50;;;;;;;;;;5066653;28;20016;-76
2022/11/20 00:08:45;;;;;;;8.88;5.07;;;;;;;;;;5084484;28;20036;-77
2022/11/20 00:11:13;;;;;;;8.68;5.10;;;;;;;;;;5084116;28;20692;-77
2022/11/20 00:13:39;;;;;;;10.15;5.85;;;;;;;;;;5068811;28;20028;-77
2022/11/20 00:16:06;;;;;;;9.77;5.82;;;;;;;;;;5095872;28;20030;-77
2022/11/20 00:18:33;;;;;;;11.50;6.38;;;;;;;;;;5090724;28;20502;-77
2022/11/20 00:21:03;;;;;;;10.00;5.70;;;;;;;;;;5082240;28;20035;-77
2022/11/20 00:23:29;;;;;;;9.40;5.30;;;;;;;;;;5087246;28;20143;-76
2022/11/20 00:25:55;;;;;;;8.18;5.13;;;;;;;;;;5087136;28;20470;-76
2022/11/20 00:28:21;;;;;;;12.38;6.70;;;;;;;;;;5089076;28;20044;-76
2022/11/20 00:30:47;;;;;;;13.93;5.13;;;;;;;;;;5087489;28;20115;-77
2022/11/20 00:33:13;;;;;;;9.88;5.90;;;;;;;;;;5069385;28;20020;-77
2022/11/20 00:35:39;;;;;;;8.65;5.05;;;;;;;;;;5089948;28;20055;-76
2022/11/20 00:38:05;;;;;;;7.05;5.40;;;;;;;;;;5083537;28;20474;-77
2022/11/20 00:40:31;;;;;;;10.15;5.60;;;;;;;;;;5069266;28;20448;-77
2022/11/20 00:42:58;;;;;;;9.82;5.75;;;;;;;;;;5088887;28;20024;-77
2022/11/20 00:45:24;;;;;;;16.23;8.20;;;;;;;;;;5086491;28;20059;-77
2022/11/20 00:47:50;;;;;;;14.80;8.27;;;;;;;;;;5086421;28;20032;-77
2022/11/20 00:50:16;;;;;;;13.82;7.53;;;;;;;;;;5085753;28;20466;-77
2022/11/20 00:52:42;;;;;;;11.80;7.50;;;;;;;;;;5086931;28;20024;-77
2022/11/20 00:55:08;;;;;;;16.25;6.97;;;;;;;;;;5085273;28;20063;-77
2022/11/20 00:57:34;;;;;;;13.82;7.07;;;;;;;;;;5088470;28;20088;-77
2022/11/20 01:00:00;;;;;;;12.63;6.97;;;;;;;;;;5085905;28;20023;-76
2022/11/20 01:02:26;;;;;;;12.13;9.65;;;;;;;;;;5087387;28;20028;-76
2022/11/20 01:04:52;;;;;;;11.48;8.20;;;;;;;;;;5090207;28;20044;-77
2022/11/20 01:07:18;;;;;;;13.75;7.85;;;;;;;;;;5083142;28;20042;-76
2022/11/20 01:09:44;;;;;;;11.40;8.75;;;;;;;;;;5089120;28;20540;-76
2022/11/20 01:12:10;;;;;;;13.52;6.50;;;;;;;;;;5088780;28;20032;-77
2022/11/20 01:14:36;;;;;;;11.35;8.02;;;;;;;;;;5086293;28;20084;-77
2022/11/20 01:17:02;;;;;;;12.73;7.53;;;;;;;;;;5088882;28;20090;-77
2022/11/20 01:19:29;;;;;;;15.15;6.70;;;;;;;;;;5086518;28;20060;-76
2022/11/20 01:21:55;;;;;;;12.30;8.27;;;;;;;;;;5087732;28;20017;-77
2022/11/20 01:24:21;;;;;;;10.02;5.40;;;;;;;;;;5068626;28;20156;-77
2022/11/20 01:26:49;;;;;;;15.23;5.18;;;;;;;;;;5086586;28;20024;-77
2022/11/20 01:29:22;;;;;;;16.70;5.63;;;;;;;;;;5080072;28;20036;-76
2022/11/20 01:31:49;;;;;;;9.73;5.30;;;;;;;;;;5089075;28;20054;-77
2022/11/20 01:34:19;;;;;;;12.98;5.05;;;;;;;;;;5098414;28;20174;-77
2022/11/20 01:36:45;;;;;;;12.55;4.68;;;;;;;;;;5100189;28;20040;-76
2022/11/20 01:39:20;;;;;;;10.85;4.82;;;;;;;;;;5072084;28;20492;-76
2022/11/20 01:44:48;;;;;;;7.13;4.25;;;;;;;;;;5087935;28;20422;-77
2022/11/20 01:47:16;;;;;;;11.65;4.95;;;;;;;;;;5088864;28;20040;-76
2022/11/20 01:50:03;;;;;;;15.63;5.10;;;;;;;;;;5088894;28;20020;-77
2022/11/20 01:52:38;;;;;;;12.82;5.50;;;;;;;;;;5088319;28;20032;-76
2022/11/20 01:55:06;;;;;;;11.20;4.57;;;;;;;;;;5076929;28;20024;-76
2022/11/20 01:57:34;;;;;;;10.25;4.47;;;;;;;;;;5097120;28;20030;-77
2022/11/20 02:00:06;;;;;;;14.55;5.22;;;;;;;;;;5094234;28;20076;-78
2022/11/20 02:02:33;;;;;;;17.80;5.13;;;;;;;;;;5088759;28;20035;-76
2022/11/20 02:05:02;;;;;;;13.65;4.32;;;;;;;;;;5089977;28;20427;-76
2022/11/20 02:07:28;;;;;;;10.40;5.38;;;;;;;;;;5097628;28;20023;-77
2022/11/20 02:09:54;;;;;;;21.98;6.47;;;;;;;;;;5097513;28;20316;-78
2022/11/20 02:15:05;;;;;;;15.95;5.03;;;;;;;;;;5078590;28;20035;-77
2022/11/20 02:17:31;;;;;;;13.82;6.60;;;;;;;;;;5088961;28;20032;-77
2022/11/20 02:19:57;;;;;;;16.40;5.90;;;;;;;;;;5070500;28;20020;-77
2022/11/20 02:22:34;;;;;;;20.60;5.60;;;;;;;;;;5089630;28;20024;-77
2022/11/20 02:25:01;;;;;;;16.92;4.80;;;;;;;;;;5095921;28;20036;-77
2022/11/20 02:27:27;;;;;;;19.60;6.45;;;;;;;;;;5094872;28;20020;-76
2022/11/20 02:30:03;;;;;;;15.98;4.43;;;;;;;;;;5082772;28;20132;-77
2022/11/20 02:32:31;;;;;;;18.35;5.35;;;;;;;;;;5086767;28;20046;-76
2022/11/20 02:34:57;;;;;;;11.82;5.03;;;;;;;;;;5088451;28;20632;-77
2022/11/20 02:37:26;;;;;;;11.65;5.55;;;;;;;;;;5087909;28;20115;-78
2022/11/20 02:39:52;;;;;;;20.35;6.05;;;;;;;;;;5088854;28;20490;-76
2022/11/20 02:42:19;;;;;;;13.88;4.78;;;;;;;;;;5086919;28;20122;-76
2022/11/20 02:44:45;;;;;;;17.92;5.10;;;;;;;;;;5088543;28;20036;-75
2022/11/20 02:47:11;;;;;;;11.77;5.40;;;;;;;;;;5085474;28;20082;-77
2022/11/20 02:49:37;;;;;;;13.00;3.80;;;;;;;;;;5070815;28;20020;-76
2022/11/20 02:52:03;;;;;;;9.48;3.70;;;;;;;;;;5068872;28;20031;-76
2022/11/20 02:54:29;;;;;;;14.10;4.07;;;;;;;;;;5089157;28;20032;-77
2022/11/20 02:56:55;;;;;;;10.10;3.83;;;;;;;;;;5089658;28;20024;-76
2022/11/20 02:59:21;;;;;;;10.05;3.60;;;;;;;;;;5083730;28;20020;-76
2022/11/20 03:01:47;;;;;;;14.20;4.30;;;;;;;;;;5088924;28;20031;-76
2022/11/20 03:04:13;;;;;;;11.27;4.13;;;;;;;;;;5074454;28;20031;-76
2022/11/20 03:06:39;;;;;;;11.15;3.97;;;;;;;;;;5087659;28;20081;-76
2022/11/20 03:09:05;;;;;;;11.63;4.47;;;;;;;;;;5069235;28;20414;-76
2022/11/20 03:11:32;;;;;;;17.02;4.75;;;;;;;;;;5070527;28;20031;-77
2022/11/20 03:13:58;;;;;;;11.50;4.60;;;;;;;;;;5085842;28;20499;-77
2022/11/20 03:16:24;;;;;;;13.82;4.38;;;;;;;;;;5088951;28;20016;-77
2022/11/20 03:18:52;;;;;;;8.80;3.33;;;;;;;;;;5066441;28;20143;-76
2022/11/20 03:21:18;;;;;;;8.52;3.20;;;;;;;;;;5088246;28;20024;-76
2022/11/20 03:23:44;;;;;;;10.07;2.90;;;;;;;;;;5092260;28;20047;-77
2022/11/20 03:26:16;;;;;;;4.93;2.55;;;;;;;;;;5087516;28;20066;-76
2022/11/20 03:28:43;;;;;;;6.45;2.53;;;;;;;;;;5087421;28;20512;-77
2022/11/20 03:31:14;;;;;;;10.23;2.63;;;;;;;;;;5086703;28;20024;-77
2022/11/20 03:33:41;;;;;;;9.18;3.70;;;;;;;;;;5085394;28;20025;-76
2022/11/20 03:36:08;;;;;;;14.13;4.15;;;;;;;;;;5068826;28;20521;-76
2022/11/20 03:38:35;;;;;;;5.18;2.50;;;;;;;;;;5067716;28;20107;-77
2022/11/20 03:41:08;;;;;;;11.73;3.67;;;;;;;;;;5081528;28;20482;-77
2022/11/20 03:43:34;;;;;;;11.80;2.83;;;;;;;;;;5088759;28;20521;-76
2022/11/20 03:46:01;;;;;;;7.40;2.80;;;;;;;;;;5064357;28;20034;-77
2022/11/20 03:48:27;;;;;;;11.70;3.05;;;;;;;;;;5084345;28;20024;-77
2022/11/20 03:50:53;;;;;;;8.85;2.30;;;;;;;;;;5088335;28;20025;-76
2022/11/20 03:53:20;;;;;;;9.73;2.60;;;;;;;;;;5086490;28;20031;-76
2022/11/20 03:55:51;;;;;;;9.57;2.58;;;;;;;;;;5087977;28;20059;-76
2022/11/20 03:58:17;;;;;;;8.38;2.70;;;;;;;;;;5085507;28;20098;-76
2022/11/20 04:00:44;;;;;;;12.50;3.42;;;;;;;;;;5086559;28;20592;-76
2022/11/20 04:03:10;;;;;;;12.73;3.22;;;;;;;;;;5079719;28;20028;-75
2022/11/20 04:05:36;;;;;;;10.15;2.97;;;;;;;;;;5071395;28;20049;-76
2022/11/20 04:08:02;;;;;;;8.07;2.90;;;;;;;;;;5086491;28;20028;-76
2022/11/20 04:10:28;;;;;;;5.75;2.67;;;;;;;;;;5066150;28;20500;-76
2022/11/20 04:12:54;;;;;;;10.55;3.17;;;;;;;;;;5084084;28;20051;-75
2022/11/20 04:15:20;;;;;;;9.30;3.33;;;;;;;;;;5081776;28;20036;-75
2022/11/20 04:17:46;;;;;;;7.43;3.53;;;;;;;;;;5079894;28;20264;-76
2022/11/20 04:20:12;;;;;;;5.63;2.90;;;;;;;;;;5079576;28;20016;-77
2022/11/20 04:22:38;;;;;;;12.70;3.38;;;;;;;;;;5085486;28;20024;-76
2022/11/20 04:25:05;;;;;;;11.57;3.58;;;;;;;;;;5084442;28;20043;-76
2022/11/20 04:27:31;;;;;;;7.97;2.83;;;;;;;;;;5069249;28;20094;-76
2022/11/20 04:29:57;;;;;;;12.43;3.38;;;;;;;;;;5081425;28;20016;-76
2022/11/20 04:32:23;;;;;;;16.85;3.83;;;;;;;;;;5084941;28;20028;-77
2022/11/20 04:34:49;;;;;;;18.30;4.50;;;;;;;;;;5084533;28;20020;-76
2022/11/20 04:37:15;;;;;;;14.70;4.03;;;;;;;;;;5086790;28;20048;-77
2022/11/20 04:39:41;;;;;;;12.48;3.97;;;;;;;;;;5077707;28;20938;-76
2022/11/20 04:44:53;;;;;;;12.32;3.83;;;;;;;;;;5081399;28;20503;-76
2022/11/20 04:47:19;;;;;;;13.30;3.70;;;;;;;;;;5086935;28;20028;-76
2022/11/20 04:49:45;;;;;;;13.50;3.75;;;;;;;;;;5089814;28;20623;-76
2022/11/20 04:52:11;;;;;;;13.88;4.05;;;;;;;;;;5087400;28;20032;-76
2022/11/20 04:54:37;;;;;;;19.20;4.35;;;;;;;;;;5090378;28;20048;-77
2022/11/20 04:57:03;;;;;;;18.23;4.63;;;;;;;;;;5088424;28;20032;-76
2022/11/20 04:59:29;;;;;;;12.40;4.28;;;;;;;;;;5068551;28;20031;-77
2022/11/20 05:01:55;;;;;;;11.20;3.80;;;;;;;;;;5085069;28;20131;-76
2022/11/20 05:04:22;;;;;;;11.27;3.72;;;;;;;;;;5086519;28;21646;-77
2022/11/20 05:06:48;;;;;;;20.75;3.80;;;;;;;;;;5089091;28;20047;-77
2022/11/20 05:09:14;;;;;;;8.90;3.40;;;;;;;;;;5092501;28;20024;-76
2022/11/20 05:11:40;;;;;;;16.95;4.05;;;;;;;;;;5075135;28;20024;-77
2022/11/20 05:14:06;;;;;;;18.88;5.38;;;;;;;;;;5065728;28;20039;-76
2022/11/20 05:16:35;;;;;;;10.85;3.70;;;;;;;;;;5088371;28;20031;-76
2022/11/20 05:19:01;;;;;;;11.98;3.80;;;;;;;;;;5069291;28;20416;-76
2022/11/20 05:21:27;;;;;;;9.27;4.18;;;;;;;;;;5091671;28;20020;-77
2022/11/20 05:23:54;;;;;;;15.20;4.32;;;;;;;;;;5091523;28;20019;-75
2022/11/20 05:26:21;;;;;;;11.85;3.10;;;;;;;;;;5090024;28;20363;-76
2022/11/20 05:28:47;;;;;;;13.07;4.35;;;;;;;;;;5088072;28;20030;-77
2022/11/20 05:31:15;;;;;;;10.38;3.25;;;;;;;;;;5090343;28;20053;-76
2022/11/20 05:33:42;;;;;;;10.45;3.60;;;;;;;;;;5071299;28;20047;-75
2022/11/20 05:36:09;;;;;;;9.57;3.72;;;;;;;;;;5089367;28;20062;-77
2022/11/20 05:38:35;;;;;;;11.85;4.80;;;;;;;;;;5088473;28;20429;-77
2022/11/20 05:41:30;;;;;;;11.82;3.25;;;;;;;;;;5089345;28;20032;-76
2022/11/20 05:43:56;;;;;;;11.07;3.55;;;;;;;;;;5047546;28;20040;-76
2022/11/20 05:46:22;;;;;;;13.45;3.53;;;;;;;;;;5087562;28;20047;-77
2022/11/20 05:48:49;;;;;;;10.50;3.08;;;;;;;;;;5083042;28;20027;-77
2022/11/20 05:51:16;;;;;;;11.10;4.05;;;;;;;;;;5072851;28;20367;-78
2022/11/20 05:53:42;;;;;;;8.35;3.25;;;;;;;;;;5094938;28;20016;-76
2022/11/20 05:56:10;;;;;;;10.15;3.20;;;;;;;;;;5090624;28;20032;-76
2022/11/20 05:58:37;;;;;;;9.65;2.90;;;;;;;;;;5091373;28;20393;-77
2022/11/20 06:01:04;;;;;;;12.57;3.03;;;;;;;;;;5088770;28;20048;-77
2022/11/20 06:03:30;;;;;;;8.57;3.03;;;;;;;;;;5069396;28;20105;-76
2022/11/20 06:05:56;;;;;;;8.80;3.42;;;;;;;;;;5088943;28;20028;-78
2022/11/20 06:08:22;;;;;;;7.68;3.85;;;;;;;;;;5087254;28;20056;-76
2022/11/20 06:10:48;;;;;;;10.60;3.10;;;;;;;;;;5087003;28;20701;-76
2022/11/20 06:13:14;;;;;;;12.15;3.47;;;;;;;;;;5084015;28;20039;-76
2022/11/20 06:15:40;;;;;;;6.68;2.67;;;;;;;;;;5083504;28;20436;-76
2022/11/20 06:18:06;;;;;;;9.35;3.28;;;;;;;;;;5082656;28;20572;-77
2022/11/20 06:20:33;;;;;;;6.25;2.90;;;;;;;;;;5069097;28;20492;-77
2022/11/20 06:22:59;;;;;;;8.52;3.38;;;;;;;;;;5068105;28;20066;-76
2022/11/20 06:25:25;;;;;;;10.40;2.95;;;;;;;;;;5097151;28;20023;-76
2022/11/20 06:27:51;;;;;;;6.85;2.45;;;;;;;;;;5085753;28;20112;-77
2022/11/20 06:30:17;;;;;;;10.80;3.80;;;;;;;;;;5093535;28;20032;-76
2022/11/20 06:32:43;;;;;;;7.55;3.17;;;;;;;;;;5088189;28;20107;-77
2022/11/20 06:35:09;;;;;;;7.72;2.60;;;;;;;;;;5080288;28;20149;-77
2022/11/20 06:37:35;;;;;;;7.72;2.40;;;;;;;;;;5081967;28;20032;-76
2022/11/20 06:40:01;;;;;;;9.23;2.58;;;;;;;;;;5086323;28;20351;-76
2022/11/20 06:42:27;;;;;;;8.13;2.55;;;;;;;;;;5086049;28;20020;-76
2022/11/20 06:44:53;;;;;;;8.13;2.45;;;;;;;;;;5085639;28;20020;-77
2022/11/20 06:47:19;;;;;;;11.73;3.40;;;;;;;;;;5085322;28;20047;-77
2022/11/20 06:49:45;;;;;;;9.73;2.85;;;;;;;;;;5086145;28;20099;-76
2022/11/20 06:52:11;;;;;;;8.20;3.20;;;;;;;;;;5086847;28;20703;-77
2022/11/20 06:54:37;;;;;;;9.30;2.85;;;;;;;;;;5086455;28;20436;-76
2022/11/20 06:57:03;;;;;;;8.30;3.05;;;;;;;;;;5085126;28;20259;-76
2022/11/20 06:59:29;;;;;;;7.60;3.45;;;;;;;;;;5086554;28;20038;-76
2022/11/20 07:01:55;;;;;;;7.38;3.38;;;;;;;;;;5086315;28;20055;-77
2022/11/20 07:04:22;;;;;;;10.15;2.88;;;;;;;;;;5086159;28;20032;-77
2022/11/20 07:06:48;;;;;;;7.63;2.53;;;;;;;;;;5086030;28;20031;-77
2022/11/20 07:09:14;;;;;;;14.02;2.85;;;;;;;;;;5086991;28;20430;-77
2022/11/20 07:11:40;;;;;;;9.70;2.65;;;;;;;;;;5066642;28;20024;-78
2022/11/20 07:14:06;;;;;;;8.38;2.85;;;;;;;;;;5083799;28;20405;-77
2022/11/20 07:16:33;;;;;;;12.70;3.53;;;;;;;;;;5062077;28;20057;-77
2022/11/20 07:18:59;;;;;;;6.25;2.95;;;;;;;;;;5087308;28;20027;-76
2022/11/20 07:21:25;;;;;;;14.20;2.88;;;;;;;;;;5085453;28;20024;-76
2022/11/20 07:23:51;;;;;;;9.38;2.50;;;;;;;;;;5085038;28;20054;-77
2022/11/20 07:26:17;;;;;;;9.63;2.70;;;;;;;;;;5086505;28;20020;-78
2022/11/20 07:28:46;;;;;;;11.93;3.38;;;;;;;;;;5086963;28;20104;-77
2022/11/20 07:31:13;;;;;;;10.18;3.45;;;;;;;;;;5085119;28;20024;-77
2022/11/20 07:33:39;;;;;;;6.53;2.55;;;;;;;;;;5084230;28;20024;-77
2022/11/20 07:36:05;;;;;;;12.32;2.65;;;;;;;;;;5085224;28;20143;-77
2022/11/20 07:38:31;;;;;;;8.80;2.67;;;;;;;;;;5086812;28;20027;-77
2022/11/20 07:40:57;;;;;;;8.27;2.55;;;;;;;;;;5084169;28;20101;-77
2022/11/20 07:43:25;;;;;;;12.93;3.60;;;;;;;;;;5085730;28;20394;-77
2022/11/20 07:45:51;;;;;;;7.75;3.22;;;;;;;;;;5088188;28;20052;-77
2022/11/20 07:48:17;;;;;;;9.35;3.88;;;;;;;;;;5083170;28;20024;-77
2022/11/20 07:50:43;;;;;;;6.88;2.70;;;;;;;;;;5085765;28;20054;-77
2022/11/20 07:53:09;;;;;;;10.68;2.90;;;;;;;;;;5083015;28;20056;-77
2022/11/20 07:55:35;;;;;;;8.20;3.20;;;;;;;;;;5086586;28;20358;-77
2022/11/20 07:58:01;;;;;;;12.00;3.10;;;;;;;;;;5091916;28;20024;-79
2022/11/20 08:00:28;;;;;;;7.53;2.47;;;;;;;;;;5082191;28;20030;-77
2022/11/20 08:02:54;;;;;;;9.23;2.65;;;;;;;;;;5084061;28;20411;-77
2022/11/20 08:05:20;;;;;;;7.63;3.05;;;;;;;;;;5081305;28;20028;-77
2022/11/20 08:07:46;;;;;;;10.95;3.17;;;;;;;;;;5087481;28;20393;-76
2022/11/20 08:10:13;;;;;;;12.50;2.58;;;;;;;;;;5082328;28;20028;-76
2022/11/20 08:15:35;;;;;;;10.20;4.63;;;;;;;;;;5083633;28;20401;-76
2022/11/20 08:18:19;;;;;;;13.25;4.70;;;;;;;;;;5064483;28;20024;-77
2022/11/20 08:20:45;;;;;;;9.75;3.80;;;;;;;;;;5084500;28;20416;-77
2022/11/20 08:23:11;;;;;;;13.27;3.50;;;;;;;;;;5067579;28;20081;-76
2022/11/20 08:25:38;;;;;;;15.13;3.20;;;;;;;;;;5085679;28;20063;-76
2022/11/20 08:28:06;;;;;;;14.45;3.30;;;;;;;;;;5087391;28;20074;-77
2022/11/20 08:30:32;;;;;;;10.23;3.55;;;;;;;;;;5082804;28;20020;-77
2022/11/20 08:33:06;;;;;;;14.55;3.40;;;;;;;;;;5067591;28;20028;-76
2022/11/20 08:35:35;;;;;;;8.77;2.90;;;;;;;;;;5080806;28;20044;-78
2022/11/20 08:38:02;;;;;;;9.35;3.25;;;;;;;;;;5087069;28;20059;-77
2022/11/20 08:40:28;;;;;;;13.85;3.58;;;;;;;;;;5079428;28;20490;-77
2022/11/20 08:42:54;;;;;;;15.45;3.60;;;;;;;;;;5085320;28;20432;-77
2022/11/20 08:45:20;;;;;;;11.88;4.40;;;;;;;;;;5082852;28;20032;-75
2022/11/20 08:47:46;;;;;;;6.10;2.97;;;;;;;;;;5085781;28;20024;-77
2022/11/20 08:50:14;;;;;;;9.90;2.90;;;;;;;;;;5082692;28;20654;-77
2022/11/20 08:52:40;;;;;;;10.82;3.17;;;;;;;;;;5082974;28;20032;-75
2022/11/20 08:55:06;;;;;;;10.70;3.45;;;;;;;;;;5083974;28;20036;-76
2022/11/20 08:57:33;;;;;;;9.82;3.25;;;;;;;;;;5084448;28;20037;-77
2022/11/20 08:59:59;;;;;;;8.73;2.33;;;;;;;;;;5084181;28;20107;-78
2022/11/20 09:02:25;;;;;;;9.93;3.13;;;;;;;;;;5084246;28;20111;-77
2022/11/20 09:04:53;;;;;;;9.68;3.55;;;;;;;;;;5082308;28;20058;-76
2022/11/20 09:07:19;;;;;;;10.60;2.50;;;;;;;;;;5083765;28;20028;-78
2022/11/20 09:09:45;;;;;;;12.85;3.22;;;;;;;;;;5087653;28;20863;-77
2022/11/20 09:12:11;;;;;;;9.73;2.92;;;;;;;;;;5067391;28;20067;-77
2022/11/20 09:14:37;;;;;;;8.90;2.95;;;;;;;;;;5083245;28;20024;-77
2022/11/20 09:17:03;;;;;;;8.90;3.08;;;;;;;;;;5065206;28;20047;-76
2022/11/20 09:19:29;;;;;;;14.45;3.00;;;;;;;;;;5066565;28;20482;-77
2022/11/20 09:21:55;;;;;;;9.43;2.80;;;;;;;;;;5082199;28;20077;-77
2022/11/20 09:24:21;;;;;;;12.02;2.95;;;;;;;;;;5068533;28;20131;-76
2022/11/20 09:26:47;;;;;;;10.90;3.33;;;;;;;;;;5064245;28;20028;-76
2022/11/20 09:29:14;;;;;;;11.40;3.78;;;;;;;;;;5084301;28;20028;-77
2022/11/20 09:31:40;;;;;;;11.48;3.03;;;;;;;;;;5081297;28;20028;-77
2022/11/20 09:34:07;;;;;;;15.45;3.13;;;;;;;;;;5083885;28;20028;-78
2022/11/20 09:36:33;;;;;;;9.43;2.58;;;;;;;;;;5084412;28;20056;-78
2022/11/20 09:38:59;;;;;;;9.20;2.80;;;;;;;;;;5086647;28;20530;-76
2022/11/20 09:41:31;;;;;;;12.38;3.63;;;;;;;;;;5088300;28;20334;-77
2022/11/20 09:44:23;;;;;;;4.97;2.40;;;;;;;;;;5079954;28;20017;-76
2022/11/20 09:46:59;;;;;;;5.53;2.40;;;;;;;;;;5079535;28;20032;-76
2022/11/20 09:49:25;;;;;;;9.45;2.80;;;;;;;;;;5081091;28;20017;-77
2022/11/20 09:51:55;;;;;;;9.20;2.53;;;;;;;;;;5077192;28;20052;-77
2022/11/20 09:54:27;;;;;;;8.85;3.17;;;;;;;;;;5088072;28;20020;-77
2022/11/20 09:57:05;;;;;;;7.05;3.05;;;;;;;;;;5068316;28;20024;-77
2022/11/20 09:59:34;;;;;;;6.78;2.78;;;;;;;;;;5088106;28;20028;-76
2022/11/20 10:02:01;;;;;;;9.90;4.95;;;;;;;;;;5088772;28;20055;-77
2022/11/20 10:04:30;;;;;;;10.13;3.17;;;;;;;;;;5089148;28;20039;-77
2022/11/20 10:07:00;;;;;;;4.47;2.60;;;;;;;;;;5078157;28;20028;-77
2022/11/20 10:09:32;;;;;;;8.35;3.28;;;;;;;;;;5084698;28;20453;-77
2022/11/20 10:12:06;;;;;;;10.05;2.45;;;;;;;;;;5090485;28;20036;-77
2022/11/20 10:14:59;;;;;;;7.80;2.37;;;;;;;;;;5064148;28;20025;-77
2022/11/20 10:17:44;;;;;;;6.88;2.80;;;;;;;;;;5026185;28;20062;-76
2022/11/20 10:20:25;;;;;;;7.95;3.10;;;;;;;;;;5085356;28;20024;-76
2022/11/20 10:22:57;;;;;;;6.03;2.70;;;;;;;;;;5068438;28;20021;-77
2022/11/20 10:25:29;;;;;;;5.45;2.85;;;;;;;;;;5083815;28;20135;-77
2022/11/20 10:28:10;;;;;;;9.02;2.83;;;;;;;;;;5086042;28;20028;-76
2022/11/20 10:30:39;;;;;;;6.28;2.25;;;;;;;;;;5083743;28;20024;-76
2022/11/20 10:33:11;;;;;;;6.45;3.22;;;;;;;;;;5086249;28;20130;-76
2022/11/20 10:36:06;;;;;;;3.63;1.90;;;;;;;;;;5086752;28;20094;-77
2022/11/20 10:38:35;;;;;;;3.90;2.42;;;;;;;;;;5070706;28;20024;-76
2022/11/20 10:43:48;;;;;;;2.65;2.30;;;;;;;;;;5090093;28;20386;-77
2022/11/20 10:46:17;;;;;;;5.60;2.20;;;;;;;;;;5086010;28;20385;-76
2022/11/20 10:48:44;;;;;;;10.45;4.05;;;;;;;;;;5085537;28;20030;-77
2022/11/20 10:51:10;;;;;;;6.88;3.85;;;;;;;;;;5085743;28;20100;-77
2022/11/20 10:53:55;;;;;;;8.15;4.57;;;;;;;;;;5090132;28;20028;-77
2022/11/20 10:56:39;;;;;;;5.90;3.30;;;;;;;;;;5086309;28;20027;-77
2022/11/20 10:59:05;;;;;;;5.35;3.80;;;;;;;;;;5087497;28;20261;-77
2022/11/20 11:01:31;;;;;;;5.15;2.95;;;;;;;;;;5085684;28;20020;-77
2022/11/20 11:03:57;;;;;;;2.13;1.92;;;;;;;;;;5089917;28;20103;-77
2022/11/20 11:06:23;;;;;;;1.88;1.60;;;;;;;;;;5090907;28;20016;-77
2022/11/20 11:08:50;;;;;;;2.88;1.98;;;;;;;;;;5091192;28;20049;-77
2022/11/20 11:11:28;;;;;;;2.65;1.90;;;;;;;;;;5082837;28;20490;-76
2022/11/20 11:14:04;;;;;;;5.93;3.05;;;;;;;;;;5089050;28;20107;-76
2022/11/20 11:16:30;;;;;;;3.08;2.20;;;;;;;;;;5087989;28;20427;-77
2022/11/20 11:19:15;;;;;;;4.40;2.22;;;;;;;;;;5090378;28;20051;-76
2022/11/20 11:21:48;;;;;;;2.70;1.90;;;;;;;;;;5084749;28;20099;-76
2022/11/20 11:24:22;;;;;;;2.28;1.67;;;;;;;;;;5089160;28;20024;-77
2022/11/20 11:26:57;;;;;;;2.13;1.70;;;;;;;;;;5071804;28;20092;-77
2022/11/20 11:29:26;;;;;;;2.67;1.70;;;;;;;;;;5088413;28;20027;-77
2022/11/20 11:32:03;;;;;;;3.50;2.53;;;;;;;;;;5089272;28;20452;-76
2022/11/20 11:34:29;;;;;;;2.13;1.70;;;;;;;;;;5085537;28;20963;-77
2022/11/20 11:36:57;;;;;;;1.90;1.80;;;;;;;;;;5093905;28;20040;-78
2022/11/20 11:39:23;;;;;;;2.28;1.77;;;;;;;;;;5088880;28;20169;-77
2022/11/20 11:41:53;;;;;;;3.35;1.60;;;;;;;;;;5089288;28;20028;-77
2022/11/20 11:47:09;;;;;;;3.92;2.10;;;;;;;;;;5071775;28;20043;-76
2022/11/20 11:49:35;;;;;;;3.33;2.03;;;;;;;;;;5087186;28;20132;-77
2022/11/20 11:52:21;;;;;;;2.58;2.17;;;;;;;;;;5088776;28;20020;-76
2022/11/20 11:54:51;;;;;;;2.58;2.15;;;;;;;;;;5071101;28;20417;-77
2022/11/20 11:57:29;;;;;;;3.40;3.08;;;;;;;;;;5098570;28;20035;-78
2022/11/20 12:00:01;;;;;;;2.90;2.22;;;;;;;;;;5094213;28;20096;-78
2022/11/20 12:02:30;;;;;;;2.03;1.80;;;;;;;;;;5086897;28;20480;-78
2022/11/20 12:05:02;;;;;;;2.50;2.25;;;;;;;;;;5072588;28;20039;-77
2022/11/20 12:07:47;;;;;;;2.03;1.80;;;;;;;;;;5063204;28;20050;-77
2022/11/20 12:10:38;;;;;;;2.50;1.80;;;;;;;;;;5080484;28;20033;-77
2022/11/20 12:13:08;;;;;;;3.53;2.92;;;;;;;;;;5086005;28;20032;-77
2022/11/20 12:15:35;;;;;;;5.50;3.58;;;;;;;;;;5062624;28;20023;-77
2022/11/20 12:18:01;;;;;;;3.30;2.20;;;;;;;;;;5088214;28;20481;-77
2022/11/20 12:20:30;;;;;;;3.33;2.13;;;;;;;;;;5062968;28;20032;-77
2022/11/20 12:23:05;;;;;;;2.85;2.13;;;;;;;;;;5082578;28;20038;-77
2022/11/20 12:25:31;;;;;;;;;;;;;;;;;;5082832;28;20707;-78
2022/11/20 12:28:16;;;;;;;2.42;1.90;;;;;;;;;;5085813;28;19951;-77
2022/11/20 12:31:02;;;;;;;3.80;1.90;;;;;;;;;;5085250;28;20363;-76
2022/11/20 12:33:38;;;;;;;3.28;2.10;;;;;;;;;;5079773;28;20020;-77
2022/11/20 12:36:07;;;;;;;6.40;2.75;;;;;;;;;;5065932;28;20155;-76
2022/11/20 12:38:52;;;;;;;4.35;2.15;;;;;;;;;;5086141;28;20027;-77
2022/11/20 12:47:20;;;;;;;4.57;2.65;;;;;;;;;;5085101;28;20051;-76
2022/11/20 12:50:10;;;;;;;4.53;2.60;;;;;;;;;;5081926;28;20020;-78
2022/11/20 12:52:44;;;;;;;2.67;2.10;;;;;;;;;;5034278;28;20071;-78
2022/11/20 12:55:18;;;;;;;3.63;2.25;;;;;;;;;;5085614;28;20040;-78
2022/11/20 12:58:03;;;;;;;4.38;2.22;;;;;;;;;;5076025;28;20490;-77
2022/11/20 13:00:34;;;;;;;3.85;2.50;;;;;;;;;;5081175;28;20032;-78
2022/11/20 13:03:00;;;;;;;4.20;2.20;;;;;;;;;;5079561;28;20093;-78
2022/11/20 13:05:52;;;;;;;4.45;2.22;;;;;;;;;;5079768;28;20024;-78
2022/11/20 13:08:23;;;;;;;6.68;2.47;;;;;;;;;;5079749;28;20028;-78
2022/11/20 13:11:11;;;;;;;8.60;2.67;;;;;;;;;;5078817;28;20069;-77
2022/11/20 13:13:57;;;;;;;3.63;2.10;;;;;;;;;;5038954;28;20516;-79
2022/11/20 13:16:27;;;;;;;3.42;1.77;;;;;;;;;;5055291;28;20043;-76
2022/11/20 13:18:53;;;;;;;3.28;2.20;;;;;;;;;;5078444;28;20028;-77
2022/11/20 13:21:21;;;;;;;3.15;2.15;;;;;;;;;;5082155;28;20036;-78
2022/11/20 13:23:48;;;;;;;4.05;3.10;;;;;;;;;;5081581;28;21001;-77
2022/11/20 13:26:16;;;;;;;3.63;2.20;;;;;;;;;;5083483;28;20028;-77
2022/11/20 13:28:42;;;;;;;3.92;2.22;;;;;;;;;;5083015;28;20102;-77
2022/11/20 13:31:44;;;;;;;4.78;2.03;;;;;;;;;;5083955;28;20032;-77
2022/11/20 13:34:12;;;;;;;4.45;2.08;;;;;;;;;;4979139;28;20031;-77
2022/11/20 13:36:48;;;;;;;4.47;1.95;;;;;;;;;;5066241;28;20044;-78
2022/11/20 13:39:24;;;;;;;3.83;2.10;;;;;;;;;;5083112;28;20036;-78
2022/11/20 13:42:10;;;;;;;3.85;1.88;;;;;;;;;;5085297;28;20024;-77
2022/11/20 13:44:42;;;;;;;2.33;1.70;;;;;;;;;;5068270;28;20044;-77
2022/11/20 13:47:22;;;;;;;3.97;2.10;;;;;;;;;;5085610;28;20370;-76
2022/11/20 13:49:48;;;;;;;6.38;2.15;;;;;;;;;;5081390;28;20036;-77
2022/11/20 13:52:17;;;;;;;3.38;2.50;;;;;;;;;;5075766;28;20027;-79
2022/11/20 13:55:10;;;;;;;4.82;2.45;;;;;;;;;;5081480;28;20228;-75
2022/11/20 13:58:02;;;;;;;3.17;2.00;;;;;;;;;;5082402;28;20209;-75
2022/11/20 14:00:28;;;;;;;2.85;2.22;;;;;;;;;;5081388;28;20494;-78
2022/11/20 14:03:06;;;;;;;2.28;1.98;;;;;;;;;;5082218;28;20028;-75
2022/11/20 14:05:37;;;;;;;5.93;2.50;;;;;;;;;;5084925;28;20031;-75
2022/11/20 14:08:05;;;;;;;5.55;2.10;;;;;;;;;;5080401;28;20036;-75
2022/11/20 14:10:31;;;;;;;4.57;2.20;;;;;;;;;;5081939;28;20477;-76
2022/11/20 14:12:57;;;;;;;6.47;2.90;;;;;;;;;;5078508;28;20027;-76
2022/11/20 14:15:33;;;;;;;3.45;2.13;;;;;;;;;;5081219;28;20060;-75
2022/11/20 14:18:11;;;;;;;3.70;2.20;;;;;;;;;;5082457;28;20032;-75
2022/11/20 14:20:38;;;;;;;7.03;2.30;;;;;;;;;;5074922;28;20024;-75
2022/11/20 14:23:05;;;;;;;7.93;2.70;;;;;;;;;;5079549;28;20115;-76
2022/11/20 14:25:31;;;;;;;2.88;2.00;;;;;;;;;;5084187;28;20028;-77
2022/11/20 14:28:01;;;;;;;7.97;2.80;;;;;;;;;;5089417;28;20480;-75
2022/11/20 14:30:29;;;;;;;4.63;2.40;;;;;;;;;;5082538;28;20020;-76
2022/11/20 14:33:02;;;;;;;6.03;3.00;;;;;;;;;;5079513;28;20039;-78
2022/11/20 14:35:34;;;;;;;4.82;2.75;;;;;;;;;;5081627;28;20403;-79
2022/11/20 14:38:01;;;;;;;9.68;2.85;;;;;;;;;;5079101;28;20036;-77
2022/11/20 14:40:32;;;;;;;4.25;2.28;;;;;;;;;;5083077;28;20027;-76
2022/11/20 14:42:58;;;;;;;5.72;2.40;;;;;;;;;;5080832;28;20131;-77
2022/11/20 14:45:25;;;;;;;4.28;2.55;;;;;;;;;;5079005;28;20438;-76
2022/11/20 14:47:52;;;;;;;5.53;2.05;;;;;;;;;;5081493;28;20047;-78
2022/11/20 14:50:23;;;;;;;5.95;3.55;;;;;;;;;;5076791;28;20516;-77
2022/11/20 14:52:59;;;;;;;7.18;2.75;;;;;;;;;;5067987;28;20042;-78
2022/11/20 14:55:27;;;;;;;6.38;2.85;;;;;;;;;;5078378;28;20119;-79
2022/11/20 14:58:00;;;;;;;3.38;2.53;;;;;;;;;;5079560;28;20343;-77
2022/11/20 15:00:26;;;;;;;3.40;2.50;;;;;;;;;;5081102;28;20111;-76
2022/11/20 15:02:53;;;;;;;2.95;2.00;;;;;;;;;;5067108;28;20063;-77
2022/11/20 15:05:21;;;;;;;8.20;4.60;;;;;;;;;;5081431;28;20028;-77
2022/11/20 15:07:49;;;;;;;10.25;5.93;;;;;;;;;;5082625;28;20386;-77
2022/11/20 15:10:25;;;;;;;9.75;5.80;;;;;;;;;;5065628;28;20028;-76
2022/11/20 15:12:51;;;;;;;8.32;4.60;;;;;;;;;;5081489;28;20028;-77